Terminal Aerodrome Forecast
Issued by NWS

Home | Current Version | Previous Version | Text Only | Print | Product List | Glossary On
Versions: 1 2 3 4 5 6 7 8 9 10 11 12 13 14 15 16
000
FTUS44 KHGX 241121
TAFLBX
TAF
KLBX 241121Z 2412/2512 00000KT P6SM VCSH FEW025
     FM241700 18011KT P6SM VCTS SCT050CB SCT250
     FM242100 17008KT P6SM SCT060 SCT250
     FM250200 19004KT P6SM SKC=

USA.gov is the U.S. government's official web portal to all federal, state and local government web resources and services.